Time;durP1;ratioP1;P1;durP2;ratioP2;P2;SDS_P1;SDS_P2;PMS_P1;PMS_P2;Temp;Humidity;BMP_temperature;BMP_pressure;BME280_temperature;BME280_humidity;BME280_pressure;Samples;Min_cycle;Max_cycle;Signal;HPM_P1;HPM_P2
2022/05/19 00:02:26;;;;;;;22.08;18.13;;;20.70;99.90;;;;;;4883515;29;20192;-75
2022/05/19 00:05:10;;;;;;;21.90;18.80;;;20.60;99.90;;;;;;4883239;29;20180;-74
2022/05/19 00:07:54;;;;;;;24.00;18.08;;;20.60;99.90;;;;;;4886257;29;20223;-76
2022/05/19 00:10:38;;;;;;;20.15;17.52;;;20.60;99.90;;;;;;4919015;29;20231;-75
2022/05/19 00:13:24;;;;;;;24.63;19.23;;;20.50;99.90;;;;;;4907650;29;20211;-75
2022/05/19 00:16:09;;;;;;;24.38;19.70;;;20.50;99.90;;;;;;4900986;29;20699;-76
2022/05/19 00:18:53;;;;;;;24.60;18.58;;;20.40;99.90;;;;;;4901865;29;20242;-75
2022/05/19 00:21:38;;;;;;;21.05;18.80;;;20.30;99.90;;;;;;4894363;29;20324;-74
2022/05/19 00:24:22;;;;;;;21.20;18.30;;;20.30;99.90;;;;;;4897549;29;20322;-76
2022/05/19 00:27:06;;;;;;;22.17;18.70;;;20.20;99.90;;;;;;4882968;29;20199;-75
2022/05/19 00:29:50;;;;;;;21.40;19.15;;;20.20;99.90;;;;;;4897184;29;20681;-75
2022/05/19 00:32:34;;;;;;;22.05;18.48;;;20.20;99.90;;;;;;4898047;29;20256;-75
2022/05/19 00:35:18;;;;;;;21.95;18.10;;;20.20;99.90;;;;;;4887144;29;20539;-75
2022/05/19 00:38:03;;;;;;;21.83;18.98;;;20.10;99.90;;;;;;4900266;29;20235;-76
2022/05/19 00:40:50;;;;;;;21.17;19.08;;;20.00;99.90;;;;;;4895414;29;20675;-75
2022/05/19 00:43:42;;;;;;;21.67;19.38;;;20.00;99.90;;;;;;4903755;29;20280;-75
2022/05/19 00:46:36;;;;;;;21.25;18.98;;;19.90;99.90;;;;;;4908546;29;20620;-75
2022/05/19 00:49:23;;;;;;;21.42;18.15;;;19.90;99.90;;;;;;4920081;29;20214;-77
2022/05/19 00:52:18;;;;;;;28.13;17.85;;;19.90;99.90;;;;;;4924610;29;20235;-75
2022/05/19 00:55:08;;;;;;;19.23;17.15;;;19.80;99.90;;;;;;4888472;29;20204;-75
2022/05/19 00:57:59;;;;;;;20.67;16.90;;;19.80;99.90;;;;;;4886392;29;20236;-75
2022/05/19 01:00:45;;;;;;;19.20;17.20;;;19.80;99.90;;;;;;4886378;29;20272;-75
2022/05/19 01:03:33;;;;;;;19.90;16.45;;;19.80;99.90;;;;;;4905074;29;20247;-75
2022/05/19 01:06:20;;;;;;;19.40;17.35;;;19.80;99.90;;;;;;4904831;29;20224;-75
2022/05/19 01:09:07;;;;;;;21.25;17.40;;;19.70;99.90;;;;;;4918958;29;20283;-75
2022/05/19 01:11:55;;;;;;;19.27;17.13;;;19.60;99.90;;;;;;4893819;29;20240;-75
2022/05/19 01:14:39;;;;;;;19.90;17.80;;;19.60;99.90;;;;;;4899881;29;20269;-75
2022/05/19 01:17:23;;;;;;;21.38;16.77;;;19.60;99.90;;;;;;4902055;29;20578;-75
2022/05/19 01:20:26;;;;;;;19.67;16.95;;;19.50;99.90;;;;;;4904139;29;20218;-75
2022/05/19 01:23:48;;;;;;;21.58;17.33;;;19.50;99.90;;;;;;4919156;29;20167;-75
2022/05/19 01:26:41;;;;;;;20.98;18.02;;;19.50;99.90;;;;;;4900944;29;20204;-75
2022/05/19 01:29:28;;;;;;;22.50;19.65;;;19.50;99.90;;;;;;4899669;29;20615;-75
2022/05/19 01:32:29;;;;;;;27.67;18.38;;;19.50;99.90;;;;;;4913049;29;20228;-75
2022/05/19 01:35:13;;;;;;;25.60;18.65;;;19.40;99.90;;;;;;4923654;29;20190;-75
2022/05/19 01:37:57;;;;;;;21.35;18.67;;;19.40;99.90;;;;;;4923702;29;20218;-75
2022/05/19 01:40:58;;;;;;;20.15;17.98;;;19.40;99.90;;;;;;4910973;29;20261;-75
2022/05/19 01:43:52;;;;;;;24.05;19.63;;;19.30;99.90;;;;;;4900343;29;20188;-75
2022/05/19 01:46:39;;;;;;;22.02;19.83;;;19.30;99.90;;;;;;4917603;29;20195;-75
2022/05/19 01:49:36;;;;;;;22.17;19.23;;;19.30;99.90;;;;;;4918072;29;20256;-75
2022/05/19 01:52:45;;;;;;;21.25;19.02;;;19.20;99.90;;;;;;4904244;29;20180;-75
2022/05/19 01:56:07;;;;;;;21.45;18.25;;;19.20;99.90;;;;;;4885524;29;20208;-76
2022/05/19 01:59:12;;;;;;;23.40;19.13;;;19.10;99.90;;;;;;4902129;29;20227;-75
2022/05/19 02:02:10;;;;;;;19.70;17.67;;;19.10;99.90;;;;;;4903643;29;20240;-74
2022/05/19 02:05:16;;;;;;;20.67;18.42;;;19.10;99.90;;;;;;4918390;29;20175;-75
2022/05/19 02:08:03;;;;;;;19.95;17.23;;;19.10;99.90;;;;;;4903536;29;20206;-76
2022/05/19 02:10:53;;;;;;;20.42;17.48;;;19.00;99.90;;;;;;4902940;29;20199;-74
2022/05/19 02:13:38;;;;;;;20.05;17.38;;;19.00;99.90;;;;;;4917306;29;20279;-75
2022/05/19 02:16:23;;;;;;;19.23;17.23;;;19.00;99.90;;;;;;4937096;29;20196;-75
2022/05/19 02:19:10;;;;;;;18.38;16.58;;;18.90;99.90;;;;;;4922299;29;20298;-75
2022/05/19 02:21:55;;;;;;;18.60;16.58;;;18.90;99.90;;;;;;4911455;29;20199;-76
2022/05/19 02:24:45;;;;;;;17.15;15.18;;;18.90;99.90;;;;;;4923093;29;20175;-75
2022/05/19 02:27:34;;;;;;;16.63;14.93;;;18.90;99.90;;;;;;4919577;29;20295;-74
2022/05/19 02:30:23;;;;;;;16.65;14.55;;;18.80;99.90;;;;;;4938121;29;20183;-75
2022/05/19 02:33:08;;;;;;;15.45;13.52;;;18.80;99.90;;;;;;4935688;29;20207;-75
2022/05/19 02:35:52;;;;;;;18.92;14.20;;;18.80;99.90;;;;;;4922674;29;20231;-74
2022/05/19 02:38:37;;;;;;;15.30;13.73;;;18.80;99.90;;;;;;4922708;29;20226;-75
2022/05/19 02:41:21;;;;;;;15.40;13.77;;;18.70;99.90;;;;;;4918370;29;20283;-76
2022/05/19 02:44:05;;;;;;;18.38;13.85;;;18.70;99.90;;;;;;4900140;29;20252;-74
2022/05/19 02:46:50;;;;;;;15.05;13.45;;;18.70;99.90;;;;;;4899785;29;20691;-75
2022/05/19 02:49:34;;;;;;;16.52;13.93;;;18.70;99.90;;;;;;4897385;29;20636;-75
2022/05/19 02:52:17;;;;;;;14.93;13.33;;;18.60;99.90;;;;;;4912533;29;20183;-75
2022/05/19 02:55:02;;;;;;;15.82;14.15;;;18.60;99.90;;;;;;4936109;29;20247;-75
2022/05/19 02:57:50;;;;;;;15.00;13.57;;;18.60;99.90;;;;;;4884243;29;20219;-75
2022/05/19 03:00:34;;;;;;;15.03;13.37;;;18.60;99.90;;;;;;4894168;29;20202;-74
2022/05/19 03:03:20;;;;;;;17.40;14.10;;;18.60;99.90;;;;;;4928521;29;20243;-74
2022/05/19 03:06:04;;;;;;;15.02;13.52;;;18.60;99.90;;;;;;4921789;29;20174;-75
2022/05/19 03:08:48;;;;;;;15.33;13.30;;;18.60;99.90;;;;;;4921367;29;20210;-75
2022/05/19 03:11:32;;;;;;;14.77;13.27;;;18.50;99.90;;;;;;4918708;29;20244;-76
2022/05/19 03:14:16;;;;;;;15.80;14.20;;;18.50;99.90;;;;;;4884151;29;20212;-75
2022/05/19 03:17:00;;;;;;;15.80;13.30;;;18.50;99.90;;;;;;4898806;29;20554;-76
2022/05/19 03:19:44;;;;;;;14.70;13.17;;;18.40;99.90;;;;;;4935835;29;20230;-75
2022/05/19 03:22:28;;;;;;;14.80;13.40;;;18.40;99.90;;;;;;4921467;29;20187;-75
2022/05/19 03:25:14;;;;;;;14.07;12.60;;;18.40;99.90;;;;;;4896635;29;20266;-76
2022/05/19 03:27:58;;;;;;;13.03;11.83;;;18.40;99.90;;;;;;4897764;29;20233;-76
2022/05/19 03:30:43;;;;;;;14.13;12.07;;;18.40;99.90;;;;;;4893934;29;20290;-75
2022/05/19 03:33:27;;;;;;;13.70;12.10;;;18.40;99.90;;;;;;4928212;29;20634;-76
2022/05/19 03:36:12;;;;;;;13.30;11.57;;;18.40;99.90;;;;;;4920984;29;20226;-76
2022/05/19 03:38:56;;;;;;;17.30;12.00;;;18.30;99.90;;;;;;4901589;29;20279;-75
2022/05/19 03:41:40;;;;;;;12.83;11.43;;;18.30;99.90;;;;;;4902393;29;20248;-76
2022/05/19 03:44:24;;;;;;;12.60;10.60;;;18.30;99.90;;;;;;4883884;29;20173;-75
2022/05/19 03:47:08;;;;;;;11.27;10.17;;;18.30;99.90;;;;;;4883439;29;20192;-74
2022/05/19 03:49:52;;;;;;;14.02;10.65;;;18.30;99.90;;;;;;4883368;29;20200;-75
2022/05/19 03:52:38;;;;;;;12.03;10.70;;;18.30;99.90;;;;;;4897834;29;20212;-76
2022/05/19 03:55:23;;;;;;;12.33;10.80;;;18.30;99.90;;;;;;4883431;29;20264;-75
2022/05/19 03:58:07;;;;;;;11.30;10.20;;;18.30;99.90;;;;;;4883200;29;20731;-75
2022/05/19 04:00:51;;;;;;;12.35;10.00;;;18.20;99.90;;;;;;4883429;29;20233;-75
2022/05/19 04:03:35;;;;;;;10.85;9.80;;;18.20;99.90;;;;;;4897580;29;20697;-75
2022/05/19 04:06:19;;;;;;;12.33;10.20;;;18.20;99.90;;;;;;4882693;29;20233;-76
2022/05/19 04:09:04;;;;;;;15.33;9.27;;;18.20;99.90;;;;;;4883094;29;20272;-76
2022/05/19 04:11:49;;;;;;;11.47;10.27;;;18.20;99.90;;;;;;4901247;29;20223;-75
2022/05/19 04:14:34;;;;;;;10.97;9.87;;;18.20;99.90;;;;;;4911452;29;20601;-75
2022/05/19 04:17:18;;;;;;;10.30;9.17;;;18.20;99.90;;;;;;4916358;29;20175;-75
2022/05/19 04:20:05;;;;;;;10.73;9.73;;;18.20;99.90;;;;;;4901169;29;20215;-76
2022/05/19 04:22:50;;;;;;;10.77;9.13;;;18.20;99.90;;;;;;4916333;29;20199;-75
2022/05/19 04:25:34;;;;;;;9.80;8.90;;;18.20;99.90;;;;;;4901812;29;20220;-75
2022/05/19 04:28:18;;;;;;;9.50;8.60;;;18.20;99.90;;;;;;4901681;29;20276;-76
2022/05/19 04:31:02;;;;;;;12.30;9.60;;;18.20;99.90;;;;;;4897290;29;20548;-76
2022/05/19 04:33:46;;;;;;;11.40;8.87;;;18.20;99.90;;;;;;4897275;29;20184;-75
2022/05/19 04:36:31;;;;;;;10.27;9.13;;;18.20;99.90;;;;;;4896217;29;20264;-75
2022/05/19 04:39:15;;;;;;;11.13;9.10;;;18.30;99.90;;;;;;4896010;29;20346;-75
2022/05/19 04:41:59;;;;;;;9.00;8.13;;;18.20;99.90;;;;;;4895734;29;20227;-75
2022/05/19 04:44:43;;;;;;;10.00;8.70;;;18.30;99.90;;;;;;4920560;29;20179;-75
2022/05/19 04:47:27;;;;;;;10.30;8.57;;;18.30;99.90;;;;;;4935130;29;20199;-76
2022/05/19 04:50:12;;;;;;;10.50;8.50;;;18.30;99.90;;;;;;4920307;29;20271;-76
2022/05/19 04:52:59;;;;;;;8.80;7.90;;;18.40;99.90;;;;;;4922010;29;20175;-75
2022/05/19 04:55:43;;;;;;;9.83;7.73;;;18.40;99.90;;;;;;4916865;29;20271;-76
2022/05/19 04:58:28;;;;;;;11.53;7.50;;;18.40;99.90;;;;;;4901527;29;20278;-75
2022/05/19 05:01:11;;;;;;;12.07;7.10;;;18.40;99.90;;;;;;4901795;29;20229;-76
2022/05/19 05:03:56;;;;;;;12.33;7.70;;;18.40;99.90;;;;;;4902096;29;20297;-75
2022/05/19 05:06:40;;;;;;;7.90;7.20;;;18.40;99.90;;;;;;4902217;29;20346;-75
2022/05/19 05:09:25;;;;;;;10.40;7.40;;;18.40;99.90;;;;;;4901362;29;20375;-76
2022/05/19 05:12:14;;;;;;;7.63;6.87;;;18.50;99.90;;;;;;4902063;29;20228;-76
2022/05/19 05:14:59;;;;;;;10.93;7.77;;;18.50;99.90;;;;;;4920106;29;20191;-77
2022/05/19 05:17:43;;;;;;;8.10;6.90;;;18.50;99.90;;;;;;4935706;29;20178;-76
2022/05/19 05:20:27;;;;;;;12.63;7.83;;;18.60;99.90;;;;;;4924475;29;20353;-75
2022/05/19 05:23:12;;;;;;;12.67;7.43;;;18.60;99.90;;;;;;4938095;29;20223;-75
2022/05/19 05:25:56;;;;;;;8.60;6.47;;;18.70;99.90;;;;;;4923673;29;20207;-75
2022/05/19 05:28:40;;;;;;;8.13;6.43;;;18.70;99.90;;;;;;4903901;29;20212;-75
2022/05/19 05:31:24;;;;;;;9.63;6.67;;;18.80;99.90;;;;;;4904853;29;20203;-76
2022/05/19 05:34:08;;;;;;;12.03;7.77;;;18.90;99.90;;;;;;4905081;29;20200;-75
2022/05/19 05:36:52;;;;;;;9.43;6.80;;;19.00;99.90;;;;;;4904582;29;20224;-76
2022/05/19 05:39:37;;;;;;;9.83;6.80;;;19.10;99.90;;;;;;4902933;29;20295;-76
2022/05/19 05:42:21;;;;;;;9.43;7.10;;;19.20;99.90;;;;;;4920672;29;20226;-76
2022/05/19 05:45:07;;;;;;;8.02;6.40;;;19.20;99.90;;;;;;4923239;29;20175;-76
2022/05/19 05:47:51;;;;;;;13.07;6.72;;;19.30;99.90;;;;;;4915906;29;20295;-76
2022/05/19 05:50:36;;;;;;;11.02;6.82;;;19.40;99.90;;;;;;4904706;29;20248;-76
2022/05/19 05:53:20;;;;;;;11.63;7.30;;;19.50;99.90;;;;;;4918293;29;20725;-76
2022/05/19 05:56:06;;;;;;;11.27;5.90;;;19.60;99.90;;;;;;4921870;29;20670;-75
2022/05/19 05:58:51;;;;;;;7.35;5.35;;;19.70;99.90;;;;;;4921254;29;20231;-77
2022/05/19 06:01:35;;;;;;;10.93;5.80;;;19.80;99.90;;;;;;4905146;29;20176;-75
2022/05/19 06:04:19;;;;;;;20.77;7.72;;;19.90;99.90;;;;;;4905297;29;20224;-76
2022/05/19 06:07:04;;;;;;;18.88;8.30;;;20.00;99.90;;;;;;4901278;29;20207;-76
2022/05/19 06:09:49;;;;;;;9.88;4.93;;;20.10;99.90;;;;;;4886335;29;20212;-77
2022/05/19 06:12:34;;;;;;;5.20;3.97;;;20.20;99.90;;;;;;4902642;29;20680;-76
2022/05/19 06:15:18;;;;;;;10.40;3.92;;;20.30;99.90;;;;;;4923011;29;20191;-76
2022/05/19 06:18:03;;;;;;;13.82;3.90;;;20.40;99.90;;;;;;4923982;29;20263;-75
2022/05/19 06:20:47;;;;;;;7.32;3.80;;;20.50;99.90;;;;;;4901281;29;20200;-76
2022/05/19 06:23:32;;;;;;;6.53;3.53;;;20.50;99.90;;;;;;4885812;29;20233;-75
2022/05/19 06:26:17;;;;;;;8.20;3.75;;;20.60;99.90;;;;;;4885777;29;20181;-76
2022/05/19 06:29:02;;;;;;;7.53;3.50;;;20.70;99.90;;;;;;4899119;29;20287;-76
2022/05/19 06:31:46;;;;;;;5.00;3.58;;;20.80;99.90;;;;;;4904119;29;20191;-76
2022/05/19 06:34:31;;;;;;;9.18;3.55;;;20.90;99.90;;;;;;4884938;29;20183;-75
2022/05/19 06:37:15;;;;;;;5.25;3.58;;;21.00;99.90;;;;;;4884465;29;20704;-76
2022/05/19 06:39:59;;;;;;;5.82;3.22;;;21.10;99.90;;;;;;4890059;29;20223;-76
2022/05/19 06:42:44;;;;;;;6.88;3.33;;;21.20;99.90;;;;;;4909313;29;20259;-76
2022/05/19 06:45:30;;;;;;;4.55;3.10;;;21.30;99.90;;;;;;4918698;29;20240;-76
2022/05/19 06:48:15;;;;;;;5.20;3.10;;;21.50;99.90;;;;;;4899907;29;20223;-75
2022/05/19 06:50:59;;;;;;;5.65;3.17;;;21.60;99.90;;;;;;4884636;29;20302;-75
2022/05/19 06:53:44;;;;;;;10.40;3.15;;;21.70;99.90;;;;;;4888432;29;20188;-76
2022/05/19 06:56:28;;;;;;;6.00;3.50;;;21.80;99.90;;;;;;4883470;29;20196;-76
2022/05/19 06:59:15;;;;;;;3.35;3.05;;;22.00;99.90;;;;;;4901915;29;20305;-76
2022/05/19 07:02:00;;;;;;;4.03;3.15;;;22.10;99.90;;;;;;4912366;29;20231;-75
2022/05/19 07:04:44;;;;;;;4.45;3.25;;;22.30;99.90;;;;;;4922359;29;20254;-76
2022/05/19 07:07:28;;;;;;;5.15;3.20;;;22.50;99.90;;;;;;4922113;29;20195;-76
2022/05/19 07:10:21;;;;;;;4.50;3.10;;;22.50;99.90;;;;;;4916137;29;20220;-76
2022/05/19 07:13:06;;;;;;;5.13;2.90;;;22.60;99.90;;;;;;4905896;29;20203;-76
2022/05/19 07:15:50;;;;;;;5.40;2.75;;;22.70;99.90;;;;;;4887747;29;20207;-76
2022/05/19 07:18:34;;;;;;;7.30;2.47;;;22.80;99.90;;;;;;4903089;29;20340;-75
2022/05/19 07:21:18;;;;;;;3.80;2.70;;;22.90;99.90;;;;;;4902906;29;20227;-76
2022/05/19 07:24:02;;;;;;;9.70;2.55;;;23.00;99.90;;;;;;4902798;29;20552;-76
2022/05/19 07:26:50;;;;;;;6.53;2.80;;;23.10;99.90;;;;;;4916590;29;20207;-76
2022/05/19 07:29:34;;;;;;;4.35;2.50;;;23.20;99.90;;;;;;4884508;29;20238;-75
2022/05/19 07:32:19;;;;;;;3.42;2.20;;;23.30;99.90;;;;;;4884535;29;20290;-76
2022/05/19 07:35:06;;;;;;;7.53;2.58;;;23.40;99.90;;;;;;4898263;29;20200;-76
2022/05/19 07:37:51;;;;;;;3.45;2.40;;;23.50;99.90;;;;;;4884091;29;20264;-75
2022/05/19 07:40:35;;;;;;;3.83;2.80;;;23.60;99.90;;;;;;4896379;29;20253;-76
2022/05/19 07:43:35;;;;;;;3.47;2.40;;;23.60;99.90;;;;;;4908509;29;20231;-75
2022/05/19 07:46:20;;;;;;;3.05;2.60;;;23.70;99.90;;;;;;4897392;29;20176;-76
2022/05/19 07:49:04;;;;;;;5.45;2.50;;;23.80;99.90;;;;;;4884355;29;20248;-75
2022/05/19 07:51:49;;;;;;;2.67;2.42;;;23.80;99.90;;;;;;4890821;29;20258;-75
2022/05/19 07:54:34;;;;;;;3.05;2.50;;;23.90;99.90;;;;;;4900921;29;20215;-76
2022/05/19 07:57:18;;;;;;;4.03;2.63;;;24.00;99.90;;;;;;4899565;29;20184;-76
2022/05/19 08:00:05;;;;;;;5.35;2.55;;;24.00;99.90;;;;;;4900976;29;20223;-76
2022/05/19 08:02:49;;;;;;;4.40;2.47;;;24.10;99.90;;;;;;4904960;29;20203;-75
2022/05/19 08:05:34;;;;;;;6.57;2.50;;;24.10;99.90;;;;;;4917896;29;20176;-76
2022/05/19 08:08:18;;;;;;;5.10;2.45;;;24.20;99.90;;;;;;4904236;29;20227;-75
2022/05/19 08:11:02;;;;;;;9.80;2.60;;;24.30;99.90;;;;;;4898242;29;20260;-75
2022/05/19 08:16:49;;;;;;;3.70;2.15;;;24.40;99.90;;;;;;4897932;29;20292;-76
2022/05/19 08:19:34;;;;;;;3.25;2.35;;;24.50;99.90;;;;;;4882833;29;20224;-75
2022/05/19 08:22:18;;;;;;;2.50;2.00;;;24.50;99.90;;;;;;4914107;29;20191;-76
2022/05/19 08:25:02;;;;;;;5.85;2.47;;;24.40;99.90;;;;;;4903059;29;20251;-76
2022/05/19 08:27:47;;;;;;;4.43;2.20;;;24.40;99.90;;;;;;4916107;29;20227;-76
2022/05/19 08:30:31;;;;;;;3.85;2.33;;;24.50;99.90;;;;;;4885431;29;20201;-76
2022/05/19 08:33:17;;;;;;;2.63;2.33;;;24.50;99.90;;;;;;4884734;29;20207;-75
2022/05/19 08:36:02;;;;;;;3.90;2.25;;;24.50;99.90;;;;;;4883107;29;20229;-76
2022/05/19 08:38:47;;;;;;;4.50;2.22;;;24.60;99.90;;;;;;4883734;29;20224;-76
2022/05/19 08:41:36;;;;;;;4.40;2.17;;;24.60;99.90;;;;;;4887606;29;20207;-76
2022/05/19 08:44:38;;;;;;;3.50;2.28;;;24.60;99.90;;;;;;4902029;29;20313;-75
2022/05/19 08:47:30;;;;;;;3.30;2.72;;;24.70;99.90;;;;;;4904716;29;20288;-75
2022/05/19 08:51:01;;;;;;;3.72;2.63;;;24.70;99.90;;;;;;4920206;29;20247;-76
2022/05/19 08:53:45;;;;;;;3.53;2.20;;;24.70;99.90;;;;;;4912259;29;20198;-76
2022/05/19 08:56:39;;;;;;;2.97;2.25;;;24.70;99.90;;;;;;4939094;29;20242;-75
2022/05/19 08:59:37;;;;;;;2.67;2.25;;;24.80;99.90;;;;;;4930929;29;20234;-77
2022/05/19 09:02:37;;;;;;;5.00;2.63;;;24.90;99.90;;;;;;4904248;29;20232;-76
2022/05/19 09:05:27;;;;;;;7.22;2.35;;;24.90;99.90;;;;;;4906315;29;20255;-74
2022/05/19 09:08:46;;;;;;;4.78;2.55;;;24.90;99.90;;;;;;4904931;29;20244;-75
2022/05/19 09:11:40;;;;;;;2.40;2.20;;;25.00;99.90;;;;;;4909092;29;20626;-75
2022/05/19 09:14:27;;;;;;;5.45;2.50;;;25.00;99.90;;;;;;4918119;29;20191;-75
2022/05/19 09:17:12;;;;;;;5.57;2.47;;;25.10;99.90;;;;;;4904854;29;20183;-76
2022/05/19 09:20:01;;;;;;;4.93;2.65;;;25.10;99.90;;;;;;4918945;29;20212;-74
2022/05/19 09:22:46;;;;;;;2.65;2.45;;;25.20;99.90;;;;;;4905292;29;20219;-76
2022/05/19 09:25:30;;;;;;;6.95;2.72;;;25.10;99.90;;;;;;4885833;29;20176;-76
2022/05/19 09:28:14;;;;;;;4.38;2.58;;;25.20;99.90;;;;;;4886191;29;20296;-75
2022/05/19 09:30:59;;;;;;;2.80;2.33;;;25.20;99.90;;;;;;4896189;29;20287;-75
2022/05/19 09:33:47;;;;;;;3.80;2.30;;;25.30;99.90;;;;;;4899780;29;20181;-76
2022/05/19 09:36:38;;;;;;;5.93;2.65;;;25.30;99.90;;;;;;4885808;29;20184;-76
2022/05/19 09:39:26;;;;;;;3.83;2.33;;;25.40;99.90;;;;;;4903301;29;20243;-76
2022/05/19 09:42:15;;;;;;;5.82;2.35;;;25.40;99.90;;;;;;4922994;29;20255;-76
2022/05/19 09:44:59;;;;;;;4.70;2.38;;;25.50;99.90;;;;;;4886842;29;20260;-75
2022/05/19 09:47:46;;;;;;;3.08;2.40;;;25.60;99.90;;;;;;4899525;29;20184;-75
2022/05/19 09:50:36;;;;;;;6.00;2.30;;;25.70;99.90;;;;;;4901604;29;20299;-75
2022/05/19 09:53:26;;;;;;;3.38;2.20;;;25.90;99.90;;;;;;4900408;29;20684;-75
2022/05/19 09:56:13;;;;;;;4.35;2.45;;;26.00;99.90;;;;;;4884960;29;20577;-76
2022/05/19 09:59:07;;;;;;;3.22;2.65;;;26.10;99.90;;;;;;4885605;29;20280;-75
2022/05/19 10:02:26;;;;;;;8.75;2.30;;;26.10;99.90;;;;;;4885578;29;20180;-75
2022/05/19 10:05:22;;;;;;;3.50;2.10;;;26.10;99.90;;;;;;4888955;29;20200;-75
2022/05/19 10:08:18;;;;;;;6.80;2.70;;;26.20;99.90;;;;;;4904332;29;20576;-76
2022/05/19 10:11:14;;;;;;;3.50;2.10;;;26.20;99.90;;;;;;4918058;29;20199;-75
2022/05/19 10:14:07;;;;;;;4.57;2.17;;;26.30;99.90;;;;;;4900954;29;20194;-76
2022/05/19 10:17:09;;;;;;;6.20;2.25;;;26.20;99.90;;;;;;4899831;29;20261;-76
2022/05/19 10:20:15;;;;;;;4.30;2.60;;;26.20;99.90;;;;;;4903460;29;20234;-76
2022/05/19 10:23:14;;;;;;;5.35;2.75;;;26.20;99.90;;;;;;4903370;29;20547;-75
2022/05/19 10:26:19;;;;;;;4.80;2.30;;;26.30;99.90;;;;;;4903249;29;20220;-75
2022/05/19 10:32:49;;;;;;;7.63;2.55;;;26.50;99.90;;;;;;4918706;29;20179;-76
2022/05/19 10:35:55;;;;;;;3.47;2.15;;;26.50;99.90;;;;;;4884544;29;20184;-75
2022/05/19 10:38:43;;;;;;;5.05;2.70;;;26.50;99.90;;;;;;4884997;29;20288;-75
2022/05/19 10:41:46;;;;;;;4.18;2.42;;;26.60;99.90;;;;;;4896807;29;20280;-76
2022/05/19 10:44:55;;;;;;;3.92;2.22;;;26.60;99.90;;;;;;4903171;29;20232;-76
2022/05/19 10:48:17;;;;;;;3.35;2.50;;;26.70;99.90;;;;;;4888733;29;20667;-76
2022/05/19 10:51:10;;;;;;;4.82;2.55;;;26.70;99.90;;;;;;4884383;29;20176;-76
2022/05/19 10:54:08;;;;;;;3.80;2.30;;;26.70;99.90;;;;;;4893599;29;20306;-74
2022/05/19 10:56:55;;;;;;;3.08;2.30;;;26.70;99.90;;;;;;4917219;29;20699;-74
2022/05/19 11:00:15;;;;;;;4.13;2.33;;;26.80;99.90;;;;;;4903038;29;20227;-75
2022/05/19 11:03:02;;;;;;;2.30;2.08;;;26.90;99.90;;;;;;4885582;29;20184;-75
2022/05/19 11:06:03;;;;;;;3.28;2.50;;;26.90;99.90;;;;;;4921960;29;20238;-75
2022/05/19 11:08:59;;;;;;;2.72;2.08;;;27.00;99.90;;;;;;4916544;29;20748;-75
2022/05/19 11:12:01;;;;;;;4.90;2.38;;;27.00;99.90;;;;;;4920216;29;20599;-75
2022/05/19 11:14:56;;;;;;;2.88;2.10;;;27.00;99.90;;;;;;4902817;29;20195;-75
2022/05/19 11:18:00;;;;;;;4.88;2.30;;;27.00;99.90;;;;;;4898535;29;20198;-76
2022/05/19 11:21:04;;;;;;;6.57;2.75;;;27.10;99.90;;;;;;4905154;29;20227;-76
2022/05/19 11:24:06;;;;;;;4.25;2.40;;;27.20;99.90;;;;;;4883939;29;20228;-76
2022/05/19 11:26:59;;;;;;;4.95;2.30;;;27.20;99.90;;;;;;4898875;29;20228;-76
2022/05/19 11:29:49;;;;;;;3.15;2.33;;;27.30;99.90;;;;;;4904509;29;20274;-76
2022/05/19 11:32:37;;;;;;;4.80;2.55;;;27.30;99.90;;;;;;4883794;29;20208;-76
2022/05/19 11:35:41;;;;;;;4.57;2.25;;;27.30;99.90;;;;;;4883676;29;20268;-76
2022/05/19 11:38:37;;;;;;;5.72;2.40;;;27.40;99.90;;;;;;4901869;29;20223;-76
2022/05/19 11:41:29;;;;;;;2.63;2.40;;;27.40;99.90;;;;;;4916230;29;20207;-75
2022/05/19 11:44:22;;;;;;;3.47;2.47;;;27.50;99.90;;;;;;4884410;29;20196;-75
2022/05/19 11:55:12;;;;;;;6.22;2.65;;;27.50;99.90;;;;;;4896929;29;20279;-76
2022/05/19 11:56:43;;;;;;;4.22;2.30;;;27.50;99.90;;;;;;4916152;29;20203;-76
2022/05/19 11:59:27;;;;;;;3.55;2.70;;;27.60;99.90;;;;;;4915782;29;20262;-76
2022/05/19 12:02:17;;;;;;;3.70;2.45;;;27.70;99.90;;;;;;4917147;29;20252;-76
2022/05/19 12:05:31;;;;;;;7.53;2.50;;;27.70;99.90;;;;;;4898568;29;20329;-75
2022/05/19 12:08:28;;;;;;;4.80;2.38;;;27.70;99.90;;;;;;4883050;29;20216;-76
2022/05/19 12:11:25;;;;;;;3.70;2.63;;;27.70;99.90;;;;;;4885292;29;20223;-75
2022/05/19 12:14:18;;;;;;;6.18;2.65;;;27.80;99.90;;;;;;4904914;29;20333;-76
2022/05/19 12:17:03;;;;;;;6.80;2.30;;;27.80;99.90;;;;;;4928279;29;20202;-74
2022/05/19 12:19:57;;;;;;;4.97;2.53;;;27.80;99.90;;;;;;4919663;29;20225;-75
2022/05/19 12:22:47;;;;;;;3.40;2.88;;;27.80;99.90;;;;;;4920717;29;20679;-76
2022/05/19 12:25:32;;;;;;;4.28;2.38;;;27.90;99.90;;;;;;4920807;29;20175;-76
2022/05/19 12:28:20;;;;;;;3.45;2.60;;;27.90;99.90;;;;;;4919510;29;20275;-75
2022/05/19 12:34:24;;;;;;;5.85;2.42;;;28.00;99.90;;;;;;4922124;29;20243;-76
2022/05/19 12:37:48;;;;;;;5.10;2.80;;;27.90;99.90;;;;;;4907974;29;20230;-76
2022/05/19 12:40:55;;;;;;;10.38;2.72;;;27.90;99.90;;;;;;4920753;29;20219;-76
2022/05/19 12:43:42;;;;;;;8.75;2.40;;;28.00;99.90;;;;;;4916556;29;20239;-76
2022/05/19 12:46:32;;;;;;;2.95;2.65;;;28.10;99.90;;;;;;4921024;29;20324;-75
2022/05/19 12:49:20;;;;;;;3.08;2.55;;;28.10;99.90;;;;;;4917340;29;20583;-76
2022/05/19 12:52:13;;;;;;;5.13;2.70;;;28.20;99.90;;;;;;4926916;29;20262;-76
2022/05/19 12:55:22;;;;;;;4.32;2.75;;;28.20;99.90;;;;;;4924594;29;20242;-76
2022/05/19 12:58:34;;;;;;;3.17;2.60;;;28.30;99.90;;;;;;4939061;29;20221;-76
2022/05/19 13:01:32;;;;;;;6.22;2.90;;;28.30;99.90;;;;;;4921116;29;20217;-75
2022/05/19 13:04:37;;;;;;;5.55;2.60;;;28.30;99.90;;;;;;4889137;29;20685;-76
2022/05/19 13:07:38;;;;;;;5.13;2.67;;;28.30;99.90;;;;;;4888775;29;20224;-76
2022/05/19 13:10:42;;;;;;;3.83;2.50;;;28.30;99.90;;;;;;4899572;29;20203;-75
2022/05/19 13:13:40;;;;;;;4.45;2.53;;;28.20;99.90;;;;;;4907980;29;20240;-76
2022/05/19 13:16:28;;;;;;;3.28;2.60;;;28.10;99.90;;;;;;4906059;29;20195;-75
2022/05/19 13:19:36;;;;;;;8.13;2.45;;;28.10;99.90;;;;;;4906554;29;20267;-75
2022/05/19 13:22:24;;;;;;;6.57;2.67;;;28.10;99.90;;;;;;4912813;29;20219;-77
2022/05/19 13:25:12;;;;;;;14.30;3.30;;;28.20;99.90;;;;;;4909655;29;20175;-76
2022/05/19 13:31:24;;;;;;;5.93;2.47;;;28.00;99.90;;;;;;4923830;29;20203;-75
2022/05/19 13:34:09;;;;;;;4.50;2.50;;;28.00;99.90;;;;;;4891380;29;20244;-75
2022/05/19 13:36:59;;;;;;;3.13;2.50;;;27.90;99.90;;;;;;4891841;29;20236;-76
2022/05/19 13:39:43;;;;;;;3.28;2.83;;;27.90;99.90;;;;;;4889548;29;20272;-76
2022/05/19 13:42:28;;;;;;;4.22;2.60;;;27.90;99.90;;;;;;4902005;29;20248;-76
2022/05/19 13:45:23;;;;;;;5.78;2.40;;;27.90;99.90;;;;;;4887847;29;20192;-76
2022/05/19 13:48:37;;;;;;;6.75;2.50;;;27.90;99.90;;;;;;4924214;29;20230;-76
2022/05/19 13:51:33;;;;;;;4.30;2.28;;;27.80;99.90;;;;;;4939790;29;20226;-76
2022/05/19 13:54:26;;;;;;;8.43;2.50;;;27.70;99.90;;;;;;4925553;29;20179;-75
2022/05/19 13:57:38;;;;;;;14.57;3.35;;;27.70;99.90;;;;;;4940641;29;20179;-76
2022/05/19 14:00:30;;;;;;;16.25;3.13;;;27.60;99.90;;;;;;4934152;29;20227;-76
2022/05/19 14:03:16;;;;;;;7.95;3.03;;;27.40;99.90;;;;;;4922000;29;20194;-76
2022/05/19 14:06:00;;;;;;;5.78;3.05;;;27.20;99.90;;;;;;4925971;29;20243;-76
2022/05/19 14:08:46;;;;;;;6.50;3.13;;;27.00;99.90;;;;;;4939725;29;20290;-75
2022/05/19 14:11:42;;;;;;;7.30;3.28;;;26.80;99.90;;;;;;4913491;29;20698;-76
2022/05/19 14:15:32;;;;;;;;;;;;;;;;;;;;;
2022/05/19 14:22:18;;;;;;;3.97;3.45;;;26.10;99.90;;;;;;4769560;29;20248;-77
2022/05/19 14:25:09;;;;;;;7.30;3.45;;;25.80;99.90;;;;;;4799626;29;20230;-76
2022/05/19 14:36:18;;;;;;;;;;;;;;;;;;;;;
2022/05/19 14:54:36;;;;;;;10.88;6.50;;;22.70;99.90;;;;;;4773774;30;20209;-76
2022/05/19 14:57:23;;;;;;;8.55;6.50;;;22.00;99.90;;;;;;4777929;29;20289;-74
2022/05/19 15:00:10;;;;;;;9.00;5.82;;;21.80;99.90;;;;;;4807074;29;20266;-74
2022/05/19 15:02:55;;;;;;;9.45;5.57;;;21.70;99.90;;;;;;4809526;29;20740;-73
2022/05/19 15:05:41;;;;;;;10.77;6.03;;;21.50;99.90;;;;;;4880753;29;20198;-74
2022/05/19 15:08:28;;;;;;;10.35;6.95;;;21.30;99.90;;;;;;4906047;29;20799;-74
2022/05/19 15:11:13;;;;;;;7.75;6.97;;;21.20;99.90;;;;;;4906015;29;20711;-73
2022/05/19 15:13:59;;;;;;;10.50;6.95;;;21.10;99.90;;;;;;4919725;29;20182;-73
2022/05/19 15:16:44;;;;;;;11.55;7.45;;;20.90;99.90;;;;;;4922140;29;20222;-74
2022/05/19 15:19:28;;;;;;;9.68;7.13;;;20.80;99.90;;;;;;4904517;29;20266;-75
2022/05/19 15:22:13;;;;;;;10.55;7.72;;;20.60;99.90;;;;;;4921070;29;20187;-74
2022/05/19 15:25:01;;;;;;;8.40;7.10;;;20.60;99.90;;;;;;4905450;29;20198;-74
2022/05/19 15:27:48;;;;;;;10.90;7.22;;;20.60;99.90;;;;;;4922111;29;20179;-73